Tropical Cyclones
[Index]
Main Index Home Page Stock Weather Photos Extreme Storms Discussion Storm News and Storm Chasing Reports Tropical Cyclones / Hurricanes / Typhoons Weather Data and Links Wild Fires / Bushfires Weather Observation Techniques Weather Picture Catalogue Tornado Pictures and Reports Stock Video Footage and DVDs for sale
Season 2000-2001 Tropical Cyclone PAULA Track Map
Season 2000-2001 Summaries (Operational Data): [AU] [SIO] [SPAC] [SH]
<<- Previous TC | 2000-2001 Season | Next TC ->>

click for intensity scale information  Lat/long Grid: Show Hide

 Date Labels: Show Hide

Operational Tropical Cyclone Data : JTWC Advisories

Name: PAULA
Number: 0113

25 Feb 2001 20:00 UTC to 05 Mar 2001 05:00 UTC

    date/time    lat    long     hPa   cat  kts
2001-02-25 20   11.0   163.0    1000         30          
2001-02-26 00   11.5   164.5     999         30          
2001-02-26 06   12.2   164.9     998         30          
2001-02-26 12   13.0   165.0     996    1    35          
2001-02-26 18   13.1   164.6     990    1    40          
2001-02-27 00   13.5   164.2     985    2    50          
2001-02-27 06   13.7   165.0     980    2    55          
2001-02-27 12   14.2   165.3     970    3    65          
2001-02-27 18   15.0   166.3     965    3    70          
2001-02-28 00   16.1   166.5     955    3    80          
2001-02-28 06   16.9   167.7     950    3    80          
2001-02-28 12   17.4   168.8     945    3    85          
2001-02-28 18   18.1   170.2     945    3    85          
2001-03-01 00   18.6   171.4     945    3    85          
2001-03-01 06   19.2   173.3     945    3    85          
2001-03-01 12   19.8   175.3     945    3    85          
2001-03-01 18   20.4   177.1     935    4    90          
2001-03-02 00   21.2   178.9     935    4    90          
2001-03-02 06   22.9   179.3W    940    4    90          
2001-03-02 12   23.0   177.7W    950    4    90          
2001-03-02 18   24.0   176.5W    960    3    85          
2001-03-03 00   24.8   175.7W    970    3    75          
2001-03-03 06   25.6   175.0W    970    3    65          
2001-03-03 12   26.5   173.5W    972    3    65          
2001-03-03 18   26.5   173.1W    980    2    60          
2001-03-04 00   27.5   172.5W    980    2    60          
2001-03-04 06   29.0   172.0W    988    2    50          
2001-03-04 11   29.0   171.0W    988    2    50          
2001-03-04 17   31.0   169.0W    992    1    40          
2001-03-04 23   33.0   168.0W    991    1    40          
2001-03-05 05   35.0   166.0W    991    1    40          
Winds are 10-min average.

Tropical cyclone tracks developed by Michael Bath using operational warnings and advisories and Google Maps.


[Australian Severe Weather index] [Copyright Notice] [Email Contacts] [Search This Site] [Privacy Policy]
Document: tropical_cyclone_paula.htm Updated: 28 May 2013